createdAt,value
2023-02-06T00:01:50.428Z,52.84
2023-02-06T00:04:18.894Z,52.87
2023-02-06T00:06:47.489Z,52.78
2023-02-06T00:09:16.003Z,52.68
2023-02-06T00:11:44.419Z,53.89
2023-02-06T00:14:12.956Z,52.92
2023-02-06T00:16:41.407Z,53.13
2023-02-06T00:19:10.063Z,52.78
2023-02-06T00:21:38.525Z,53.04
2023-02-06T00:24:07.134Z,52.96
2023-02-06T00:26:35.672Z,52.77
2023-02-06T00:29:04.196Z,52.23
2023-02-06T00:31:32.707Z,51.71
2023-02-06T00:34:01.553Z,50.59
2023-02-06T00:36:30.085Z,50.26
2023-02-06T00:38:58.593Z,50.37
2023-02-06T00:41:27.029Z,50.19
2023-02-06T00:43:55.442Z,51.40
2023-02-06T00:46:24.006Z,52.22
2023-02-06T00:48:52.558Z,52.35
2023-02-06T00:51:21.029Z,52.88
2023-02-06T00:53:51.132Z,52.74
2023-02-06T00:56:19.737Z,52.40
2023-02-06T00:58:48.148Z,51.72
2023-02-06T01:01:16.711Z,51.21
2023-02-06T01:03:45.178Z,52.04
2023-02-06T01:06:13.578Z,52.40
2023-02-06T01:08:42.136Z,52.82
2023-02-06T01:11:16.175Z,52.83
2023-02-06T01:13:44.635Z,53.52
2023-02-06T01:16:17.112Z,52.72
2023-02-06T01:18:46.109Z,51.51
2023-02-06T01:21:20.836Z,51.58
2023-02-06T01:23:51.466Z,51.74
2023-02-06T01:26:23.300Z,51.77
2023-02-06T01:28:51.801Z,51.63
2023-02-06T01:31:24.185Z,51.23
2023-02-06T01:33:53.193Z,51.83
2023-02-06T01:36:22.095Z,52.55
2023-02-06T01:38:50.734Z,53.04
2023-02-06T01:41:22.117Z,53.43
2023-02-06T01:44:13.094Z,53.08
2023-02-06T01:46:44.414Z,52.13
2023-02-06T01:49:19.719Z,52.87
2023-02-06T01:51:50.069Z,53.63
2023-02-06T01:54:18.756Z,53.52
2023-02-06T01:56:54.632Z,53.67
2023-02-06T01:59:24.321Z,54.00
2023-02-06T02:01:52.858Z,53.99
2023-02-06T02:04:24.354Z,53.77
2023-02-06T02:07:13.552Z,54.21
2023-02-06T02:09:42.116Z,54.08
2023-02-06T02:12:10.736Z,53.75
2023-02-06T02:14:43.021Z,53.30
2023-02-06T02:17:35.672Z,53.83
2023-02-06T02:20:07.107Z,52.30
2023-02-06T02:22:50.043Z,52.05
2023-02-06T02:26:03.127Z,51.66
2023-02-06T02:28:34.327Z,51.70
2023-02-06T02:31:05.675Z,52.15
2023-02-06T02:33:55.954Z,51.96
2023-02-06T02:36:35.062Z,52.37
2023-02-06T02:39:15.681Z,53.55
2023-02-06T02:42:03.362Z,53.65
2023-02-06T02:44:47.277Z,53.53
2023-02-06T02:47:18.567Z,52.67
2023-02-06T02:49:48.475Z,52.96
2023-02-06T02:52:16.856Z,53.67
2023-02-06T02:54:45.243Z,52.82
2023-02-06T02:57:22.648Z,53.05
2023-02-06T02:59:51.869Z,53.58
2023-02-06T03:02:27.546Z,53.76
2023-02-06T03:05:04.264Z,53.77
2023-02-06T03:08:01.659Z,53.75
2023-02-06T03:10:36.089Z,54.19
2023-02-06T03:13:17.563Z,53.80
2023-02-06T03:15:55.324Z,53.49
2023-02-06T03:18:36.330Z,53.54
2023-02-06T03:21:07.004Z,53.55
2023-02-06T03:23:39.296Z,54.05
2023-02-06T03:26:09.607Z,53.97
2023-02-06T03:28:42.747Z,54.09
2023-02-06T03:31:16.846Z,53.95
2023-02-06T03:33:52.142Z,53.94
2023-02-06T03:36:21.156Z,53.89
2023-02-06T03:38:52.102Z,54.11
2023-02-06T03:41:25.774Z,54.13
2023-02-06T03:43:56.806Z,54.05
2023-02-06T03:46:28.239Z,54.26
2023-02-06T03:49:00.926Z,54.03
2023-02-06T03:51:35.185Z,54.03
2023-02-06T03:54:06.091Z,54.86
2023-02-06T03:56:40.231Z,54.84
2023-02-06T03:59:08.774Z,55.01
2023-02-06T04:01:44.509Z,55.56
2023-02-06T04:04:21.592Z,55.83
2023-02-06T04:06:50.057Z,56.35
2023-02-06T04:09:18.454Z,55.01
2023-02-06T04:11:46.891Z,53.94
2023-02-06T04:14:15.249Z,53.41
2023-02-06T04:16:43.827Z,53.51
2023-02-06T04:19:12.236Z,53.10
2023-02-06T04:21:40.748Z,53.28
2023-02-06T04:24:09.298Z,54.33
2023-02-06T04:26:37.756Z,57.07
2023-02-06T04:29:06.520Z,56.86
2023-02-06T04:31:34.890Z,56.01
2023-02-06T04:34:03.359Z,56.34
2023-02-06T04:36:31.836Z,56.75
2023-02-06T04:39:00.497Z,55.59
2023-02-06T04:41:28.885Z,54.92
2023-02-06T04:43:57.353Z,55.15
2023-02-06T04:46:26.461Z,55.47
2023-02-06T04:48:55.020Z,54.80
2023-02-06T04:51:23.458Z,53.76
2023-02-06T04:53:51.895Z,53.14
2023-02-06T04:56:20.503Z,52.38
2023-02-06T04:58:48.948Z,52.45
2023-02-06T05:01:17.776Z,52.69
2023-02-06T05:03:47.315Z,52.59
2023-02-06T05:06:16.319Z,53.07
2023-02-06T05:08:44.810Z,55.63
2023-02-06T05:11:13.273Z,55.43
2023-02-06T05:13:42.743Z,54.38
2023-02-06T05:16:14.112Z,54.71
2023-02-06T05:18:47.311Z,53.33
2023-02-06T05:21:15.933Z,52.37
2023-02-06T05:23:44.429Z,52.64
2023-02-06T05:26:12.780Z,52.03
2023-02-06T05:28:41.386Z,51.90
2023-02-06T05:31:10.238Z,52.67
2023-02-06T05:33:38.686Z,53.32
2023-02-06T05:36:07.921Z,54.08
2023-02-06T05:38:36.453Z,54.19
2023-02-06T05:41:05.048Z,54.20
2023-02-06T05:43:33.744Z,54.03
2023-02-06T05:46:02.317Z,54.12
2023-02-06T05:48:31.096Z,53.61
2023-02-06T05:50:59.523Z,53.69
2023-02-06T05:53:28.145Z,54.27
2023-02-06T05:55:57.041Z,54.51
2023-02-06T05:58:25.559Z,54.89
2023-02-06T06:00:54.120Z,54.86
2023-02-06T06:03:22.568Z,54.89
2023-02-06T06:05:51.300Z,54.47
2023-02-06T06:08:20.087Z,54.35
2023-02-06T06:10:52.410Z,54.25
2023-02-06T06:13:20.931Z,54.37
2023-02-06T06:15:53.071Z,54.24
2023-02-06T06:18:21.782Z,54.10
2023-02-06T06:20:50.249Z,54.33
2023-02-06T06:23:18.855Z,54.27
2023-02-06T06:25:48.214Z,53.87
2023-02-06T06:28:16.798Z,54.26
2023-02-06T06:30:45.387Z,54.54
2023-02-06T06:33:16.354Z,54.56
2023-02-06T06:35:44.735Z,54.85
2023-02-06T06:38:13.106Z,55.07
2023-02-06T06:40:41.644Z,55.35
2023-02-06T06:43:10.044Z,54.81
2023-02-06T06:45:38.958Z,54.66
2023-02-06T06:48:07.639Z,55.17
2023-02-06T06:50:36.077Z,55.07
2023-02-06T06:53:04.524Z,54.93
2023-02-06T06:55:33.064Z,55.15
2023-02-06T06:58:01.854Z,55.29
2023-02-06T07:00:30.270Z,54.45
2023-02-06T07:02:58.759Z,53.97
2023-02-06T07:05:27.290Z,53.81
2023-02-06T07:07:55.684Z,54.45
2023-02-06T07:10:24.457Z,54.82
2023-02-06T07:12:53.644Z,55.14
2023-02-06T07:15:23.231Z,55.34
2023-02-06T07:17:51.631Z,55.24
2023-02-06T07:20:20.281Z,55.20
2023-02-06T07:22:50.216Z,55.17
2023-02-06T07:25:20.273Z,55.00
2023-02-06T07:27:48.876Z,55.85
2023-02-06T07:30:17.361Z,55.69
2023-02-06T07:32:45.836Z,57.66
2023-02-06T07:35:15.332Z,58.08
2023-02-06T07:37:43.752Z,58.17
2023-02-06T07:40:12.677Z,58.10
2023-02-06T07:42:41.085Z,58.06
2023-02-06T07:45:09.846Z,58.16
2023-02-06T07:47:38.279Z,57.58
2023-02-06T07:50:07.144Z,57.74
2023-02-06T07:52:35.608Z,58.45
2023-02-06T07:55:04.466Z,58.39
2023-02-06T07:57:32.826Z,58.08
2023-02-06T08:00:01.323Z,58.74
2023-02-06T08:02:29.853Z,82.29
2023-02-06T08:04:58.376Z,80.87
2023-02-06T08:07:26.965Z,80.48
2023-02-06T08:09:55.330Z,79.76
2023-02-06T08:12:23.783Z,79.68
2023-02-06T08:14:52.263Z,79.88
2023-02-06T08:17:21.209Z,79.97
2023-02-06T08:19:49.691Z,79.25
2023-02-06T08:22:18.121Z,78.29
2023-02-06T08:24:47.511Z,78.96
2023-02-06T08:27:15.951Z,78.78
2023-02-06T08:29:44.404Z,78.99
2023-02-06T08:32:12.819Z,78.91
2023-02-06T08:34:41.550Z,79.01
2023-02-06T08:37:10.432Z,78.72
2023-02-06T08:39:38.904Z,79.01
2023-02-06T08:42:07.369Z,78.59
2023-02-06T08:44:35.945Z,78.06
2023-02-06T08:47:10.046Z,78.48
2023-02-06T08:49:39.119Z,79.16
2023-02-06T08:52:07.541Z,79.15
2023-02-06T08:54:38.618Z,78.55
2023-02-06T08:57:07.273Z,79.06
2023-02-06T08:59:35.689Z,79.70
2023-02-06T09:02:04.244Z,79.82
2023-02-06T09:04:34.573Z,78.66
2023-02-06T09:07:03.250Z,77.95
2023-02-06T09:09:31.696Z,77.21
2023-02-06T09:12:03.748Z,76.33
2023-02-06T09:14:32.258Z,75.91
2023-02-06T09:17:01.103Z,76.28
2023-02-06T09:19:29.630Z,76.10
2023-02-06T09:21:58.101Z,75.80
2023-02-06T09:24:27.374Z,75.15
2023-02-06T09:27:00.688Z,75.43
2023-02-06T09:29:31.779Z,75.60
2023-02-06T09:32:00.805Z,75.90
2023-02-06T09:34:29.933Z,76.22
2023-02-06T09:37:01.316Z,75.95
2023-02-06T09:39:30.595Z,76.04
2023-02-06T09:42:12.765Z,75.35
2023-02-06T09:44:46.205Z,75.61
2023-02-06T09:47:28.249Z,75.14
2023-02-06T09:50:05.469Z,76.64
2023-02-06T09:53:00.106Z,76.11
2023-02-06T09:56:15.656Z,75.84
2023-02-06T09:58:56.694Z,75.78
2023-02-06T10:01:52.509Z,75.62
2023-02-06T10:04:47.418Z,58.93
2023-02-06T10:07:31.171Z,59.13
2023-02-06T10:10:06.573Z,59.21
2023-02-06T10:12:44.111Z,58.54
2023-02-06T10:15:34.725Z,59.21
2023-02-06T10:18:14.635Z,59.60
2023-02-06T10:21:10.862Z,59.50
2023-02-06T10:23:51.752Z,59.30
2023-02-06T10:26:22.426Z,59.01
2023-02-06T10:28:55.977Z,58.94
2023-02-06T10:31:24.444Z,59.94
2023-02-06T10:33:55.777Z,59.78
2023-02-06T10:36:45.988Z,59.30
2023-02-06T10:39:38.769Z,58.55
2023-02-06T10:42:50.886Z,59.16
2023-02-06T10:45:34.175Z,57.96
2023-02-06T10:48:19.152Z,58.59
2023-02-06T10:50:55.014Z,59.01
2023-02-06T10:53:31.905Z,59.38
2023-02-06T10:56:08.301Z,59.20
2023-02-06T10:58:48.468Z,59.03
2023-02-06T11:01:26.102Z,58.15
2023-02-06T11:04:20.009Z,58.24
2023-02-06T11:06:48.394Z,52.06
2023-02-06T11:09:16.872Z,52.03
2023-02-06T11:11:48.478Z,51.56
2023-02-06T11:14:24.970Z,51.65
2023-02-06T11:16:54.179Z,51.43
2023-02-06T11:19:30.223Z,51.46
2023-02-06T11:22:04.622Z,51.62
2023-02-06T11:24:34.337Z,51.37
2023-02-06T11:27:13.273Z,50.60
2023-02-06T11:29:50.939Z,50.24
2023-02-06T11:32:43.872Z,49.88
2023-02-06T11:35:33.531Z,50.04
2023-02-06T11:38:16.308Z,50.37
2023-02-06T11:40:56.796Z,49.00
2023-02-06T11:43:28.262Z,49.96
2023-02-06T11:46:35.075Z,49.70
2023-02-06T11:49:23.096Z,49.37
2023-02-06T11:51:53.829Z,49.15
2023-02-06T11:54:31.565Z,48.67
2023-02-06T11:57:20.145Z,48.66
2023-02-06T11:59:52.979Z,48.41
2023-02-06T12:02:31.161Z,48.00
2023-02-06T12:05:07.126Z,48.51
2023-02-06T12:07:39.697Z,48.59
2023-02-06T12:10:17.255Z,47.96
2023-02-06T12:12:57.811Z,47.95
2023-02-06T12:15:46.481Z,47.83
2023-02-06T12:18:17.863Z,47.31
2023-02-06T12:21:12.825Z,47.52
2023-02-06T12:23:47.211Z,46.84
2023-02-06T12:26:19.140Z,46.86
2023-02-06T12:29:02.291Z,46.55
2023-02-06T12:32:08.812Z,46.83
2023-02-06T12:35:00.394Z,46.55
2023-02-06T12:37:42.417Z,46.18
2023-02-06T12:40:29.505Z,46.40
2023-02-06T12:43:06.851Z,46.39
2023-02-06T12:46:01.060Z,46.45
2023-02-06T12:48:35.277Z,46.79
2023-02-06T12:51:19.431Z,46.21
2023-02-06T12:54:00.860Z,45.97
2023-02-06T12:56:38.816Z,46.21
2023-02-06T12:59:10.190Z,46.27
2023-02-06T13:01:58.064Z,46.18
2023-02-06T13:04:31.456Z,46.40
2023-02-06T13:07:08.528Z,45.87
2023-02-06T13:09:41.894Z,45.60
2023-02-06T13:12:19.951Z,46.02
2023-02-06T13:15:10.198Z,44.60
2023-02-06T13:17:45.085Z,45.80
2023-02-06T13:20:17.172Z,45.75
2023-02-06T13:23:11.765Z,45.17
2023-02-06T13:25:40.128Z,44.88
2023-02-06T13:28:21.689Z,45.14
2023-02-06T13:31:03.371Z,45.28
2023-02-06T13:34:00.127Z,45.15
2023-02-06T13:36:44.260Z,44.78
2023-02-06T13:39:21.552Z,44.73
2023-02-06T13:41:51.245Z,44.91
2023-02-06T13:44:33.749Z,45.20
2023-02-06T13:47:20.446Z,44.75
2023-02-06T13:50:27.716Z,45.04
2023-02-06T13:53:24.941Z,45.02
2023-02-06T13:56:13.145Z,45.02
2023-02-06T13:58:51.765Z,45.34
2023-02-06T14:01:30.074Z,45.27
2023-02-06T14:03:59.516Z,45.42
2023-02-06T14:06:46.146Z,45.52
2023-02-06T14:09:40.080Z,45.52
2023-02-06T14:12:56.825Z,45.40
2023-02-06T14:15:43.646Z,45.27
2023-02-06T14:18:30.073Z,45.42
2023-02-06T14:21:17.102Z,45.33
2023-02-06T14:24:15.450Z,45.46
2023-02-06T14:27:00.820Z,45.51
2023-02-06T14:29:41.078Z,45.55
2023-02-06T14:32:35.676Z,45.75
2023-02-06T14:35:31.590Z,45.63
2023-02-06T14:38:37.774Z,45.38
2023-02-06T14:41:06.826Z,45.31
2023-02-06T14:43:40.278Z,45.55
2023-02-06T14:46:13.451Z,45.56
2023-02-06T14:48:54.890Z,44.97
2023-02-06T14:51:37.130Z,45.13
2023-02-06T14:54:29.425Z,45.55
2023-02-06T14:57:00.298Z,45.07
2023-02-06T14:59:30.092Z,45.42
2023-02-06T15:01:59.777Z,45.55
2023-02-06T15:04:29.958Z,45.25
2023-02-06T15:07:02.026Z,45.45
2023-02-06T15:09:33.542Z,45.46
2023-02-06T15:12:21.171Z,45.70
2023-02-06T15:14:52.324Z,45.63
2023-02-06T15:17:22.777Z,45.41
2023-02-06T15:19:52.690Z,45.38
2023-02-06T15:22:30.234Z,45.49
2023-02-06T15:25:37.996Z,45.56
2023-02-06T15:28:16.327Z,45.64
2023-02-06T15:30:45.590Z,45.43
2023-02-06T15:33:21.466Z,45.31
2023-02-06T15:35:53.161Z,45.77
2023-02-06T15:38:24.288Z,45.85
2023-02-06T15:41:15.125Z,45.67
2023-02-06T15:43:46.871Z,45.40
2023-02-06T15:46:15.820Z,45.74
2023-02-06T15:48:48.193Z,45.55
2023-02-06T15:51:21.637Z,45.58
2023-02-06T15:53:52.187Z,45.67
2023-02-06T15:56:28.581Z,45.26
2023-02-06T15:59:00.833Z,45.10
2023-02-06T16:01:30.952Z,44.39
2023-02-06T16:04:05.255Z,45.56
2023-02-06T16:06:34.010Z,45.60
2023-02-06T16:09:06.337Z,45.59
2023-02-06T16:11:47.427Z,45.56
2023-02-06T16:14:37.694Z,45.73
2023-02-06T16:17:26.452Z,45.44
2023-02-06T16:19:58.173Z,45.69
2023-02-06T16:22:31.075Z,45.86
2023-02-06T16:25:25.717Z,45.34
2023-02-06T16:27:54.595Z,45.63
2023-02-06T16:30:28.312Z,45.63
2023-02-06T16:32:59.580Z,46.04
2023-02-06T16:35:28.078Z,45.35
2023-02-06T16:37:57.390Z,45.81
2023-02-06T16:40:26.224Z,45.95
2023-02-06T16:42:54.832Z,45.66
2023-02-06T16:45:26.252Z,46.12
2023-02-06T16:47:55.269Z,45.49
2023-02-06T16:50:23.902Z,45.13
2023-02-06T16:52:57.873Z,45.46
2023-02-06T16:55:27.228Z,45.67
2023-02-06T16:57:59.612Z,45.67
2023-02-06T17:00:31.347Z,45.66
2023-02-06T17:03:00.284Z,45.27
2023-02-06T17:05:29.016Z,45.84
2023-02-06T17:07:57.734Z,45.42
2023-02-06T17:10:26.691Z,45.45
2023-02-06T17:12:55.276Z,45.67
2023-02-06T17:15:23.801Z,45.35
2023-02-06T17:17:54.819Z,45.01
2023-02-06T17:20:37.324Z,45.34
2023-02-06T17:23:06.896Z,46.11
2023-02-06T17:25:35.497Z,45.70
2023-02-06T17:28:07.530Z,45.96
2023-02-06T17:30:38.110Z,45.81
2023-02-06T17:33:07.183Z,45.87
2023-02-06T17:35:36.889Z,45.93
2023-02-06T17:38:07.632Z,45.14
2023-02-06T17:40:37.900Z,45.45
2023-02-06T17:43:07.127Z,45.44
2023-02-06T17:45:38.885Z,45.17
2023-02-06T17:48:08.348Z,44.58
2023-02-06T17:50:39.342Z,44.55
2023-02-06T17:53:11.929Z,45.81
2023-02-06T17:55:41.144Z,45.72
2023-02-06T17:58:09.755Z,45.62
2023-02-06T18:00:38.930Z,46.00
2023-02-06T18:03:07.689Z,46.31
2023-02-06T18:05:37.362Z,46.99
2023-02-06T18:08:05.999Z,47.36
2023-02-06T18:10:34.490Z,47.42
2023-02-06T18:13:02.999Z,47.60
2023-02-06T18:15:31.977Z,47.63
2023-02-06T18:18:00.485Z,47.53
2023-02-06T18:20:28.996Z,47.75
2023-02-06T18:22:57.701Z,47.58
2023-02-06T18:25:26.143Z,47.82
2023-02-06T18:27:54.647Z,47.80
2023-02-06T18:30:23.222Z,48.07
2023-02-06T18:32:51.706Z,47.80
2023-02-06T18:35:20.246Z,48.06
2023-02-06T18:37:50.022Z,48.17
2023-02-06T18:40:18.931Z,48.56
2023-02-06T18:42:56.160Z,48.06
2023-02-06T18:45:31.201Z,47.65
2023-02-06T18:48:04.597Z,47.17
2023-02-06T18:50:34.541Z,46.97
2023-02-06T18:53:03.615Z,46.69
2023-02-06T18:55:34.998Z,47.07
2023-02-06T18:58:06.931Z,47.96
2023-02-06T19:00:37.794Z,48.13
2023-02-06T19:03:08.547Z,47.84
2023-02-06T19:05:37.472Z,47.48
2023-02-06T19:08:06.118Z,47.56
2023-02-06T19:10:34.765Z,48.41
2023-02-06T19:13:03.319Z,48.84
2023-02-06T19:15:34.334Z,49.14
2023-02-06T19:18:04.423Z,49.18
2023-02-06T19:20:32.858Z,49.07
2023-02-06T19:23:01.351Z,48.83
2023-02-06T19:25:30.357Z,48.65
2023-02-06T19:27:58.872Z,48.81
2023-02-06T19:30:27.349Z,48.31
2023-02-06T19:32:55.827Z,47.54
2023-02-06T19:35:24.312Z,47.31
2023-02-06T19:37:52.786Z,47.28
2023-02-06T19:40:21.241Z,47.24
2023-02-06T19:42:49.738Z,47.38
2023-02-06T19:45:18.304Z,47.13
2023-02-06T19:47:46.816Z,47.24
2023-02-06T19:50:15.267Z,46.96
2023-02-06T19:52:43.704Z,47.25
2023-02-06T19:55:12.185Z,47.24
2023-02-06T19:57:40.794Z,47.05
2023-02-06T20:00:09.890Z,47.24
2023-02-06T20:02:39.472Z,47.23
2023-02-06T20:05:08.419Z,47.68
2023-02-06T20:07:36.941Z,47.51
2023-02-06T20:10:05.955Z,47.29
2023-02-06T20:12:34.544Z,47.21
2023-02-06T20:15:02.952Z,47.17
2023-02-06T20:17:31.401Z,46.97
2023-02-06T20:19:59.971Z,47.35
2023-02-06T20:22:28.862Z,46.96
2023-02-06T20:24:57.459Z,47.30
2023-02-06T20:27:26.554Z,47.12
2023-02-06T20:29:55.145Z,46.95
2023-02-06T20:32:24.265Z,46.84
2023-02-06T20:34:52.889Z,46.79
2023-02-06T20:37:21.611Z,46.96
2023-02-06T20:39:50.089Z,46.90
2023-02-06T20:42:22.256Z,46.79
2023-02-06T20:44:51.446Z,46.48
2023-02-06T20:47:19.924Z,47.01
2023-02-06T20:49:48.398Z,46.84
2023-02-06T20:52:17.049Z,46.75
2023-02-06T20:54:45.490Z,47.02
2023-02-06T20:57:15.318Z,46.87
2023-02-06T20:59:43.859Z,47.04
2023-02-06T21:02:12.384Z,47.03
2023-02-06T21:04:40.830Z,47.04
2023-02-06T21:07:09.372Z,47.11
2023-02-06T21:09:37.839Z,47.17
2023-02-06T21:12:06.546Z,47.16
2023-02-06T21:14:35.338Z,47.14
2023-02-06T21:17:04.072Z,47.34
2023-02-06T21:19:32.521Z,47.90
2023-02-06T21:22:01.764Z,47.54
2023-02-06T21:24:30.401Z,47.50
2023-02-06T21:26:58.880Z,47.54
2023-02-06T21:29:27.383Z,47.31
2023-02-06T21:32:07.435Z,47.20
2023-02-06T21:34:41.736Z,47.40
2023-02-06T21:37:10.235Z,47.33
2023-02-06T21:39:40.833Z,47.78
2023-02-06T21:42:11.384Z,48.53
2023-02-06T21:44:40.037Z,48.82
2023-02-06T21:47:09.942Z,49.31
2023-02-06T21:49:38.352Z,48.90
2023-02-06T21:52:06.782Z,49.25
2023-02-06T21:54:35.345Z,49.47
2023-02-06T21:57:04.436Z,48.83
2023-02-06T21:59:34.010Z,48.57
2023-02-06T22:02:02.640Z,48.00
2023-02-06T22:04:31.196Z,48.55
2023-02-06T22:06:59.699Z,49.02
2023-02-06T22:09:28.393Z,49.38
2023-02-06T22:11:56.909Z,49.71
2023-02-06T22:14:26.380Z,49.89
2023-02-06T22:16:54.902Z,50.21
2023-02-06T22:19:23.397Z,50.41
2023-02-06T22:21:51.907Z,50.14
2023-02-06T22:24:20.377Z,51.19
2023-02-06T22:26:48.943Z,50.57
2023-02-06T22:29:17.974Z,50.75
2023-02-06T22:31:46.724Z,50.84
2023-02-06T22:34:18.202Z,50.84
2023-02-06T22:36:47.557Z,50.55
2023-02-06T22:39:16.108Z,50.58
2023-02-06T22:41:45.864Z,50.40
2023-02-06T22:44:18.073Z,50.29
2023-02-06T22:46:48.217Z,50.31
2023-02-06T22:49:17.281Z,50.92
2023-02-06T22:51:46.253Z,51.21
2023-02-06T22:54:14.974Z,50.68
2023-02-06T22:56:44.204Z,50.52
2023-02-06T22:59:12.680Z,50.31
2023-02-06T23:01:49.199Z,50.50
2023-02-06T23:04:23.161Z,50.36
2023-02-06T23:06:52.396Z,50.39
2023-02-06T23:09:32.682Z,50.68
2023-02-06T23:12:02.045Z,50.35
2023-02-06T23:14:32.118Z,50.43
2023-02-06T23:17:02.085Z,50.29
2023-02-06T23:19:30.705Z,50.54
2023-02-06T23:21:59.267Z,50.28
2023-02-06T23:24:28.016Z,50.80
2023-02-06T23:26:56.503Z,50.37
2023-02-06T23:29:24.966Z,50.31
2023-02-06T23:31:53.832Z,49.54
2023-02-06T23:34:24.197Z,50.11
2023-02-06T23:36:53.108Z,49.67
2023-02-06T23:39:21.680Z,49.47
2023-02-06T23:41:50.208Z,48.88
2023-02-06T23:44:19.170Z,49.15
2023-02-06T23:46:47.824Z,48.56
2023-02-06T23:49:16.248Z,48.72
2023-02-06T23:51:44.759Z,48.60
2023-02-06T23:54:13.221Z,48.63
2023-02-06T23:56:41.679Z,49.03
2023-02-06T23:59:10.456Z,49.65
